sensor_id;sensor_type;location;lat;lon;timestamp;temperature;humidity
11736;DHT22;5924;51.398;7.088;2024-02-16T00:01:02;12.90;99.90
11736;DHT22;5924;51.398;7.088;2024-02-16T00:03:28;12.90;99.90
11736;DHT22;5924;51.398;7.088;2024-02-16T00:05:54;12.90;99.90
11736;DHT22;5924;51.398;7.088;2024-02-16T00:08:20;12.90;99.90
11736;DHT22;5924;51.398;7.088;2024-02-16T00:10:48;12.80;99.90
11736;DHT22;5924;51.398;7.088;2024-02-16T00:13:14;12.80;99.90
11736;DHT22;5924;51.398;7.088;2024-02-16T00:15:40;12.80;99.90
11736;DHT22;5924;51.398;7.088;2024-02-16T00:18:06;13.40;99.90
11736;DHT22;5924;51.398;7.088;2024-02-16T00:20:32;12.80;99.90
11736;DHT22;5924;51.398;7.088;2024-02-16T00:22:58;13.80;99.90
11736;DHT22;5924;51.398;7.088;2024-02-16T00:25:24;12.90;99.90
11736;DHT22;5924;51.398;7.088;2024-02-16T00:27:49;12.90;99.90
11736;DHT22;5924;51.398;7.088;2024-02-16T00:30:18;12.90;99.90
11736;DHT22;5924;51.398;7.088;2024-02-16T00:32:44;12.90;99.90
11736;DHT22;5924;51.398;7.088;2024-02-16T00:35:11;12.90;99.90
11736;DHT22;5924;51.398;7.088;2024-02-16T00:37:37;12.90;99.90
11736;DHT22;5924;51.398;7.088;2024-02-16T00:40:03;12.90;99.90
11736;DHT22;5924;51.398;7.088;2024-02-16T00:42:30;12.90;99.90
11736;DHT22;5924;51.398;7.088;2024-02-16T00:44:56;12.90;99.90
11736;DHT22;5924;51.398;7.088;2024-02-16T00:47:22;13.00;99.90
11736;DHT22;5924;51.398;7.088;2024-02-16T00:49:49;13.00;99.90
11736;DHT22;5924;51.398;7.088;2024-02-16T00:52:15;13.50;99.90
11736;DHT22;5924;51.398;7.088;2024-02-16T00:54:40;13.00;99.90
11736;DHT22;5924;51.398;7.088;2024-02-16T00:57:06;14.30;99.90
11736;DHT22;5924;51.398;7.088;2024-02-16T00:59:32;13.00;99.90
11736;DHT22;5924;51.398;7.088;2024-02-16T01:01:57;13.10;99.90
11736;DHT22;5924;51.398;7.088;2024-02-16T01:04:23;13.00;99.90
11736;DHT22;5924;51.398;7.088;2024-02-16T01:06:49;12.90;99.90
11736;DHT22;5924;51.398;7.088;2024-02-16T01:09:15;13.00;99.90
11736;DHT22;5924;51.398;7.088;2024-02-16T01:11:44;13.00;99.90
11736;DHT22;5924;51.398;7.088;2024-02-16T01:14:09;13.40;99.90
11736;DHT22;5924;51.398;7.088;2024-02-16T01:16:35;12.90;99.90
11736;DHT22;5924;51.398;7.088;2024-02-16T01:19:01;12.80;99.90
11736;DHT22;5924;51.398;7.088;2024-02-16T01:21:27;12.80;99.90
11736;DHT22;5924;51.398;7.088;2024-02-16T01:23:52;12.80;99.90
11736;DHT22;5924;51.398;7.088;2024-02-16T01:26:18;12.80;99.90
11736;DHT22;5924;51.398;7.088;2024-02-16T01:28:44;12.80;99.90
11736;DHT22;5924;51.398;7.088;2024-02-16T01:31:10;12.80;99.90
11736;DHT22;5924;51.398;7.088;2024-02-16T01:33:37;12.80;99.90
11736;DHT22;5924;51.398;7.088;2024-02-16T01:36:03;12.70;99.90
11736;DHT22;5924;51.398;7.088;2024-02-16T01:38:29;12.80;99.90
11736;DHT22;5924;51.398;7.088;2024-02-16T01:40:54;12.80;99.90
11736;DHT22;5924;51.398;7.088;2024-02-16T01:43:20;12.80;99.90
11736;DHT22;5924;51.398;7.088;2024-02-16T01:45:46;12.80;99.90
11736;DHT22;5924;51.398;7.088;2024-02-16T01:48:15;12.90;99.90
11736;DHT22;5924;51.398;7.088;2024-02-16T01:50:43;11.10;99.90
11736;DHT22;5924;51.398;7.088;2024-02-16T01:53:14;12.90;99.90
11736;DHT22;5924;51.398;7.088;2024-02-16T01:55:41;13.00;99.90
11736;DHT22;5924;51.398;7.088;2024-02-16T01:58:06;13.00;99.90
11736;DHT22;5924;51.398;7.088;2024-02-16T02:00:32;13.10;99.90
11736;DHT22;5924;51.398;7.088;2024-02-16T02:02:58;13.00;99.90
11736;DHT22;5924;51.398;7.088;2024-02-16T02:05:24;13.00;99.90
11736;DHT22;5924;51.398;7.088;2024-02-16T02:07:49;13.00;99.90
11736;DHT22;5924;51.398;7.088;2024-02-16T02:10:15;12.90;99.90
11736;DHT22;5924;51.398;7.088;2024-02-16T02:12:42;12.90;99.90
11736;DHT22;5924;51.398;7.088;2024-02-16T02:15:08;12.90;99.90
11736;DHT22;5924;51.398;7.088;2024-02-16T02:17:34;12.90;99.90
11736;DHT22;5924;51.398;7.088;2024-02-16T02:20:00;14.40;99.90
11736;DHT22;5924;51.398;7.088;2024-02-16T02:22:26;13.00;99.90
11736;DHT22;5924;51.398;7.088;2024-02-16T02:24:53;13.00;99.90
11736;DHT22;5924;51.398;7.088;2024-02-16T02:27:21;13.00;99.90
11736;DHT22;5924;51.398;7.088;2024-02-16T02:29:47;12.50;99.90
11736;DHT22;5924;51.398;7.088;2024-02-16T02:32:12;13.00;99.90
11736;DHT22;5924;51.398;7.088;2024-02-16T02:34:39;13.00;99.90
11736;DHT22;5924;51.398;7.088;2024-02-16T02:37:05;14.30;99.90
11736;DHT22;5924;51.398;7.088;2024-02-16T02:39:31;13.10;99.90
11736;DHT22;5924;51.398;7.088;2024-02-16T02:41:57;13.10;99.90
11736;DHT22;5924;51.398;7.088;2024-02-16T02:44:24;13.10;99.90
11736;DHT22;5924;51.398;7.088;2024-02-16T02:46:50;13.20;99.90
11736;DHT22;5924;51.398;7.088;2024-02-16T02:49:15;13.10;99.90
11736;DHT22;5924;51.398;7.088;2024-02-16T02:51:41;13.10;99.90
11736;DHT22;5924;51.398;7.088;2024-02-16T02:54:07;13.10;99.90
11736;DHT22;5924;51.398;7.088;2024-02-16T02:56:32;13.10;99.90
11736;DHT22;5924;51.398;7.088;2024-02-16T02:58:58;13.10;99.90
11736;DHT22;5924;51.398;7.088;2024-02-16T03:01:24;13.10;99.90
11736;DHT22;5924;51.398;7.088;2024-02-16T03:03:50;13.10;99.90
11736;DHT22;5924;51.398;7.088;2024-02-16T03:06:19;14.10;99.90
11736;DHT22;5924;51.398;7.088;2024-02-16T03:08:44;13.00;99.90
11736;DHT22;5924;51.398;7.088;2024-02-16T03:11:10;13.00;99.90
11736;DHT22;5924;51.398;7.088;2024-02-16T03:13:36;12.90;99.90
11736;DHT22;5924;51.398;7.088;2024-02-16T03:16:03;12.90;99.90
11736;DHT22;5924;51.398;7.088;2024-02-16T03:18:33;13.00;99.90
11736;DHT22;5924;51.398;7.088;2024-02-16T03:21:00;13.00;99.90
11736;DHT22;5924;51.398;7.088;2024-02-16T03:23:25;12.90;99.90
11736;DHT22;5924;51.398;7.088;2024-02-16T03:25:51;12.10;99.90
11736;DHT22;5924;51.398;7.088;2024-02-16T03:28:17;13.00;99.90
11736;DHT22;5924;51.398;7.088;2024-02-16T03:30:43;13.00;99.90
11736;DHT22;5924;51.398;7.088;2024-02-16T03:33:09;12.90;99.90
11736;DHT22;5924;51.398;7.088;2024-02-16T03:35:36;12.80;99.90
11736;DHT22;5924;51.398;7.088;2024-02-16T03:38:05;12.80;99.90
11736;DHT22;5924;51.398;7.088;2024-02-16T03:40:31;12.90;99.90
11736;DHT22;5924;51.398;7.088;2024-02-16T03:42:57;12.80;99.90
11736;DHT22;5924;51.398;7.088;2024-02-16T03:45:24;12.80;99.90
11736;DHT22;5924;51.398;7.088;2024-02-16T03:47:50;12.70;99.90
11736;DHT22;5924;51.398;7.088;2024-02-16T03:50:18;12.60;99.90
11736;DHT22;5924;51.398;7.088;2024-02-16T03:52:44;12.60;99.90
11736;DHT22;5924;51.398;7.088;2024-02-16T03:55:10;11.20;99.90
11736;DHT22;5924;51.398;7.088;2024-02-16T03:57:35;12.70;99.90
11736;DHT22;5924;51.398;7.088;2024-02-16T04:00:02;12.70;99.90
11736;DHT22;5924;51.398;7.088;2024-02-16T04:02:28;12.80;99.90
11736;DHT22;5924;51.398;7.088;2024-02-16T04:04:53;12.80;99.90
11736;DHT22;5924;51.398;7.088;2024-02-16T04:07:19;12.70;99.90
11736;DHT22;5924;51.398;7.088;2024-02-16T04:09:45;12.70;99.90
11736;DHT22;5924;51.398;7.088;2024-02-16T04:12:10;12.70;99.90
11736;DHT22;5924;51.398;7.088;2024-02-16T04:14:36;12.80;99.90
11736;DHT22;5924;51.398;7.088;2024-02-16T04:17:02;12.80;99.90
11736;DHT22;5924;51.398;7.088;2024-02-16T04:19:28;13.10;99.90
11736;DHT22;5924;51.398;7.088;2024-02-16T04:21:54;12.90;99.90
11736;DHT22;5924;51.398;7.088;2024-02-16T04:24:20;12.90;99.90
11736;DHT22;5924;51.398;7.088;2024-02-16T04:26:46;13.00;99.90
11736;DHT22;5924;51.398;7.088;2024-02-16T04:29:12;13.00;99.90
11736;DHT22;5924;51.398;7.088;2024-02-16T04:31:41;13.00;99.90
11736;DHT22;5924;51.398;7.088;2024-02-16T04:34:12;13.00;99.90
11736;DHT22;5924;51.398;7.088;2024-02-16T04:36:37;12.90;99.90
11736;DHT22;5924;51.398;7.088;2024-02-16T04:39:03;12.90;99.90
11736;DHT22;5924;51.398;7.088;2024-02-16T04:41:29;12.90;99.90
11736;DHT22;5924;51.398;7.088;2024-02-16T04:43:55;11.40;99.90
11736;DHT22;5924;51.398;7.088;2024-02-16T04:46:21;12.90;99.90
11736;DHT22;5924;51.398;7.088;2024-02-16T04:48:47;12.90;99.90
11736;DHT22;5924;51.398;7.088;2024-02-16T04:51:13;12.90;99.90
11736;DHT22;5924;51.398;7.088;2024-02-16T04:53:38;12.90;99.90
11736;DHT22;5924;51.398;7.088;2024-02-16T04:56:04;12.90;99.90
11736;DHT22;5924;51.398;7.088;2024-02-16T04:58:31;12.90;99.90
11736;DHT22;5924;51.398;7.088;2024-02-16T05:00:57;12.90;99.90
11736;DHT22;5924;51.398;7.088;2024-02-16T05:03:23;12.80;99.90
11736;DHT22;5924;51.398;7.088;2024-02-16T05:05:49;12.80;99.90
11736;DHT22;5924;51.398;7.088;2024-02-16T05:08:15;12.80;99.90
11736;DHT22;5924;51.398;7.088;2024-02-16T05:10:40;12.80;99.90
11736;DHT22;5924;51.398;7.088;2024-02-16T05:13:06;12.80;99.90
11736;DHT22;5924;51.398;7.088;2024-02-16T05:15:32;12.70;99.90
11736;DHT22;5924;51.398;7.088;2024-02-16T05:17:58;12.70;99.90
11736;DHT22;5924;51.398;7.088;2024-02-16T05:20:24;12.70;99.90
11736;DHT22;5924;51.398;7.088;2024-02-16T05:22:49;12.70;99.90
11736;DHT22;5924;51.398;7.088;2024-02-16T05:25:18;12.70;99.90
11736;DHT22;5924;51.398;7.088;2024-02-16T05:27:45;12.60;99.90
11736;DHT22;5924;51.398;7.088;2024-02-16T05:30:12;12.60;99.90
11736;DHT22;5924;51.398;7.088;2024-02-16T05:32:38;12.60;99.90
11736;DHT22;5924;51.398;7.088;2024-02-16T05:35:05;12.60;99.90
11736;DHT22;5924;51.398;7.088;2024-02-16T05:37:37;12.60;99.90
11736;DHT22;5924;51.398;7.088;2024-02-16T05:40:08;12.60;99.90
11736;DHT22;5924;51.398;7.088;2024-02-16T05:42:45;12.50;99.90
11736;DHT22;5924;51.398;7.088;2024-02-16T05:45:11;12.50;99.90
11736;DHT22;5924;51.398;7.088;2024-02-16T05:47:37;12.50;99.90
11736;DHT22;5924;51.398;7.088;2024-02-16T05:50:04;12.50;99.90
11736;DHT22;5924;51.398;7.088;2024-02-16T05:52:30;14.00;99.90
11736;DHT22;5924;51.398;7.088;2024-02-16T05:54:56;12.50;99.90
11736;DHT22;5924;51.398;7.088;2024-02-16T05:57:22;12.40;99.90
11736;DHT22;5924;51.398;7.088;2024-02-16T05:59:49;12.40;99.90
11736;DHT22;5924;51.398;7.088;2024-02-16T06:02:14;12.40;99.90
11736;DHT22;5924;51.398;7.088;2024-02-16T06:04:41;12.30;99.90
11736;DHT22;5924;51.398;7.088;2024-02-16T06:07:07;12.30;99.90
11736;DHT22;5924;51.398;7.088;2024-02-16T06:09:33;12.30;99.90
11736;DHT22;5924;51.398;7.088;2024-02-16T06:12:06;12.30;99.90
11736;DHT22;5924;51.398;7.088;2024-02-16T06:14:33;12.30;99.90
11736;DHT22;5924;51.398;7.088;2024-02-16T06:16:59;12.30;99.90
11736;DHT22;5924;51.398;7.088;2024-02-16T06:19:26;12.30;99.90
11736;DHT22;5924;51.398;7.088;2024-02-16T06:21:53;11.70;99.90
11736;DHT22;5924;51.398;7.088;2024-02-16T06:24:20;12.30;99.90
11736;DHT22;5924;51.398;7.088;2024-02-16T06:26:46;12.30;99.90
11736;DHT22;5924;51.398;7.088;2024-02-16T06:29:12;12.30;99.90
11736;DHT22;5924;51.398;7.088;2024-02-16T06:31:37;12.30;99.90
11736;DHT22;5924;51.398;7.088;2024-02-16T06:34:03;12.30;99.90
11736;DHT22;5924;51.398;7.088;2024-02-16T06:36:29;12.40;99.90
11736;DHT22;5924;51.398;7.088;2024-02-16T06:38:54;12.50;99.90
11736;DHT22;5924;51.398;7.088;2024-02-16T06:41:20;12.50;99.90
11736;DHT22;5924;51.398;7.088;2024-02-16T06:43:45;12.60;99.90
11736;DHT22;5924;51.398;7.088;2024-02-16T06:46:11;12.50;99.90
11736;DHT22;5924;51.398;7.088;2024-02-16T06:48:37;12.50;99.90
11736;DHT22;5924;51.398;7.088;2024-02-16T06:51:02;12.50;99.90
11736;DHT22;5924;51.398;7.088;2024-02-16T06:53:28;12.50;99.90
11736;DHT22;5924;51.398;7.088;2024-02-16T06:55:54;12.50;99.90
11736;DHT22;5924;51.398;7.088;2024-02-16T06:58:20;12.50;99.90
11736;DHT22;5924;51.398;7.088;2024-02-16T07:00:45;12.50;99.90
11736;DHT22;5924;51.398;7.088;2024-02-16T07:03:12;12.50;99.90
11736;DHT22;5924;51.398;7.088;2024-02-16T07:05:37;12.50;99.90
11736;DHT22;5924;51.398;7.088;2024-02-16T07:08:04;12.60;99.90
11736;DHT22;5924;51.398;7.088;2024-02-16T07:10:32;12.60;99.90
11736;DHT22;5924;51.398;7.088;2024-02-16T07:12:58;12.60;99.90
11736;DHT22;5924;51.398;7.088;2024-02-16T07:15:24;12.60;99.90
11736;DHT22;5924;51.398;7.088;2024-02-16T07:17:51;12.60;99.90
11736;DHT22;5924;51.398;7.088;2024-02-16T07:20:17;12.60;99.90
11736;DHT22;5924;51.398;7.088;2024-02-16T07:22:43;12.70;99.90
11736;DHT22;5924;51.398;7.088;2024-02-16T07:25:11;12.70;99.90
11736;DHT22;5924;51.398;7.088;2024-02-16T07:27:38;12.80;99.90
11736;DHT22;5924;51.398;7.088;2024-02-16T07:30:04;12.80;99.90
11736;DHT22;5924;51.398;7.088;2024-02-16T07:32:30;12.80;99.90
11736;DHT22;5924;51.398;7.088;2024-02-16T07:34:56;12.90;99.90
11736;DHT22;5924;51.398;7.088;2024-02-16T07:37:21;12.90;99.90
11736;DHT22;5924;51.398;7.088;2024-02-16T07:39:47;13.00;99.90
11736;DHT22;5924;51.398;7.088;2024-02-16T07:42:13;13.00;99.90
11736;DHT22;5924;51.398;7.088;2024-02-16T07:44:39;13.10;99.90
11736;DHT22;5924;51.398;7.088;2024-02-16T07:47:05;13.10;99.90
11736;DHT22;5924;51.398;7.088;2024-02-16T07:49:31;13.20;99.90
11736;DHT22;5924;51.398;7.088;2024-02-16T07:51:56;13.30;99.90
11736;DHT22;5924;51.398;7.088;2024-02-16T07:54:23;13.30;99.90
11736;DHT22;5924;51.398;7.088;2024-02-16T07:56:49;14.50;99.90
11736;DHT22;5924;51.398;7.088;2024-02-16T07:59:14;13.40;99.90
11736;DHT22;5924;51.398;7.088;2024-02-16T08:01:40;13.40;99.90
11736;DHT22;5924;51.398;7.088;2024-02-16T08:04:06;13.50;99.90
11736;DHT22;5924;51.398;7.088;2024-02-16T08:06:31;13.60;99.90
11736;DHT22;5924;51.398;7.088;2024-02-16T08:08:57;13.70;99.90
11736;DHT22;5924;51.398;7.088;2024-02-16T08:11:23;13.80;99.90
11736;DHT22;5924;51.398;7.088;2024-02-16T08:13:49;15.10;99.90
11736;DHT22;5924;51.398;7.088;2024-02-16T08:16:14;13.80;99.90
11736;DHT22;5924;51.398;7.088;2024-02-16T08:18:42;13.80;99.90
11736;DHT22;5924;51.398;7.088;2024-02-16T08:21:08;13.80;99.90
11736;DHT22;5924;51.398;7.088;2024-02-16T08:23:34;13.80;99.90
11736;DHT22;5924;51.398;7.088;2024-02-16T08:26:00;13.80;99.90
11736;DHT22;5924;51.398;7.088;2024-02-16T08:28:26;13.90;99.90
11736;DHT22;5924;51.398;7.088;2024-02-16T08:30:51;13.90;99.90
11736;DHT22;5924;51.398;7.088;2024-02-16T08:33:17;13.90;99.90
11736;DHT22;5924;51.398;7.088;2024-02-16T08:35:43;14.00;99.90
11736;DHT22;5924;51.398;7.088;2024-02-16T08:38:09;14.00;99.90
11736;DHT22;5924;51.398;7.088;2024-02-16T08:40:37;14.00;99.90
11736;DHT22;5924;51.398;7.088;2024-02-16T08:43:03;14.00;99.90
11736;DHT22;5924;51.398;7.088;2024-02-16T08:45:30;14.00;99.90
11736;DHT22;5924;51.398;7.088;2024-02-16T08:47:56;16.20;99.90
11736;DHT22;5924;51.398;7.088;2024-02-16T08:50:23;15.10;99.90
11736;DHT22;5924;51.398;7.088;2024-02-16T08:52:49;14.00;99.90
11736;DHT22;5924;51.398;7.088;2024-02-16T08:55:15;14.10;99.90
11736;DHT22;5924;51.398;7.088;2024-02-16T08:57:41;13.10;99.90
11736;DHT22;5924;51.398;7.088;2024-02-16T09:00:08;14.30;99.90
11736;DHT22;5924;51.398;7.088;2024-02-16T09:02:34;14.30;99.90
11736;DHT22;5924;51.398;7.088;2024-02-16T09:05:00;14.40;99.90
11736;DHT22;5924;51.398;7.088;2024-02-16T09:07:25;14.40;99.90
11736;DHT22;5924;51.398;7.088;2024-02-16T09:09:52;14.50;99.90
11736;DHT22;5924;51.398;7.088;2024-02-16T09:12:19;14.50;99.90
11736;DHT22;5924;51.398;7.088;2024-02-16T09:14:45;14.50;99.90
11736;DHT22;5924;51.398;7.088;2024-02-16T09:17:10;14.60;99.90
11736;DHT22;5924;51.398;7.088;2024-02-16T09:19:36;14.60;99.90
11736;DHT22;5924;51.398;7.088;2024-02-16T09:22:02;14.60;99.90
11736;DHT22;5924;51.398;7.088;2024-02-16T09:24:28;14.70;99.90
11736;DHT22;5924;51.398;7.088;2024-02-16T09:26:55;14.70;99.90
11736;DHT22;5924;51.398;7.088;2024-02-16T09:29:21;14.80;99.90
11736;DHT22;5924;51.398;7.088;2024-02-16T09:31:49;14.80;99.90
11736;DHT22;5924;51.398;7.088;2024-02-16T09:34:15;14.90;99.90
11736;DHT22;5924;51.398;7.088;2024-02-16T09:36:40;14.90;99.90
11736;DHT22;5924;51.398;7.088;2024-02-16T09:39:06;14.90;99.90
11736;DHT22;5924;51.398;7.088;2024-02-16T09:41:35;15.00;99.90
11736;DHT22;5924;51.398;7.088;2024-02-16T09:44:04;15.10;99.90
11736;DHT22;5924;51.398;7.088;2024-02-16T09:46:33;15.10;99.90
11736;DHT22;5924;51.398;7.088;2024-02-16T09:49:02;15.10;99.90
11736;DHT22;5924;51.398;7.088;2024-02-16T09:51:32;15.20;99.90
11736;DHT22;5924;51.398;7.088;2024-02-16T09:54:01;15.20;99.90
11736;DHT22;5924;51.398;7.088;2024-02-16T09:56:28;15.30;99.90
11736;DHT22;5924;51.398;7.088;2024-02-16T09:58:54;15.40;99.90
11736;DHT22;5924;51.398;7.088;2024-02-16T10:01:23;15.40;99.90
11736;DHT22;5924;51.398;7.088;2024-02-16T10:03:49;16.80;99.90
11736;DHT22;5924;51.398;7.088;2024-02-16T10:06:16;15.50;99.90
11736;DHT22;5924;51.398;7.088;2024-02-16T10:08:49;15.50;99.90
11736;DHT22;5924;51.398;7.088;2024-02-16T10:11:16;15.60;99.90
11736;DHT22;5924;51.398;7.088;2024-02-16T10:13:56;15.50;99.90
11736;DHT22;5924;51.398;7.088;2024-02-16T10:16:23;15.50;99.90
11736;DHT22;5924;51.398;7.088;2024-02-16T10:18:49;13.50;99.90
11736;DHT22;5924;51.398;7.088;2024-02-16T10:21:24;15.40;99.90
11736;DHT22;5924;51.398;7.088;2024-02-16T10:24:04;15.30;99.90
11736;DHT22;5924;51.398;7.088;2024-02-16T10:26:32;15.30;99.90
11736;DHT22;5924;51.398;7.088;2024-02-16T10:28:58;15.30;99.90
11736;DHT22;5924;51.398;7.088;2024-02-16T10:31:24;15.20;99.90
11736;DHT22;5924;51.398;7.088;2024-02-16T10:34:01;15.30;99.90
11736;DHT22;5924;51.398;7.088;2024-02-16T10:36:36;15.30;99.90
11736;DHT22;5924;51.398;7.088;2024-02-16T10:39:03;15.40;99.90
11736;DHT22;5924;51.398;7.088;2024-02-16T10:41:38;15.60;99.90
11736;DHT22;5924;51.398;7.088;2024-02-16T10:44:05;15.70;99.90
11736;DHT22;5924;51.398;7.088;2024-02-16T10:46:32;15.90;99.90
11736;DHT22;5924;51.398;7.088;2024-02-16T10:48:58;16.00;99.90
11736;DHT22;5924;51.398;7.088;2024-02-16T10:51:33;15.30;99.90
11736;DHT22;5924;51.398;7.088;2024-02-16T10:54:00;15.90;99.90
11736;DHT22;5924;51.398;7.088;2024-02-16T10:56:27;15.90;99.90
11736;DHT22;5924;51.398;7.088;2024-02-16T10:58:54;14.70;99.90
11736;DHT22;5924;51.398;7.088;2024-02-16T11:01:19;16.10;99.90
11736;DHT22;5924;51.398;7.088;2024-02-16T11:03:45;16.10;99.90
11736;DHT22;5924;51.398;7.088;2024-02-16T11:06:17;16.10;99.90
11736;DHT22;5924;51.398;7.088;2024-02-16T11:08:43;16.00;99.90
11736;DHT22;5924;51.398;7.088;2024-02-16T11:11:09;15.90;99.90
11736;DHT22;5924;51.398;7.088;2024-02-16T11:13:38;15.80;99.90
11736;DHT22;5924;51.398;7.088;2024-02-16T11:16:09;15.80;99.90
11736;DHT22;5924;51.398;7.088;2024-02-16T11:18:42;15.70;99.90
11736;DHT22;5924;51.398;7.088;2024-02-16T11:21:12;15.60;99.90
11736;DHT22;5924;51.398;7.088;2024-02-16T11:23:40;15.50;99.90
11736;DHT22;5924;51.398;7.088;2024-02-16T11:26:09;15.40;99.90
11736;DHT22;5924;51.398;7.088;2024-02-16T11:28:40;15.30;99.90
11736;DHT22;5924;51.398;7.088;2024-02-16T11:31:06;15.20;99.90
11736;DHT22;5924;51.398;7.088;2024-02-16T11:33:35;15.20;99.90
11736;DHT22;5924;51.398;7.088;2024-02-16T11:36:05;15.10;99.90
11736;DHT22;5924;51.398;7.088;2024-02-16T11:38:32;15.00;99.90
11736;DHT22;5924;51.398;7.088;2024-02-16T11:41:03;15.00;99.90
11736;DHT22;5924;51.398;7.088;2024-02-16T11:43:30;15.00;99.90
11736;DHT22;5924;51.398;7.088;2024-02-16T11:45:56;14.90;99.90
11736;DHT22;5924;51.398;7.088;2024-02-16T11:48:24;14.90;99.90
11736;DHT22;5924;51.398;7.088;2024-02-16T11:50:58;12.70;99.90
11736;DHT22;5924;51.398;7.088;2024-02-16T11:53:24;14.90;99.90
11736;DHT22;5924;51.398;7.088;2024-02-16T11:55:50;15.00;99.90
11736;DHT22;5924;51.398;7.088;2024-02-16T11:58:19;14.90;99.90
11736;DHT22;5924;51.398;7.088;2024-02-16T12:00:49;14.90;99.90
11736;DHT22;5924;51.398;7.088;2024-02-16T12:05:56;14.80;99.90
11736;DHT22;5924;51.398;7.088;2024-02-16T12:08:22;14.70;99.90
11736;DHT22;5924;51.398;7.088;2024-02-16T12:10:49;14.70;99.90
11736;DHT22;5924;51.398;7.088;2024-02-16T12:13:19;14.60;99.90
11736;DHT22;5924;51.398;7.088;2024-02-16T12:15:49;14.60;99.90
11736;DHT22;5924;51.398;7.088;2024-02-16T12:18:23;14.60;99.90
11736;DHT22;5924;51.398;7.088;2024-02-16T12:23:28;14.50;99.90
11736;DHT22;5924;51.398;7.088;2024-02-16T12:25:56;14.50;99.90
11736;DHT22;5924;51.398;7.088;2024-02-16T12:28:27;14.50;99.90
11736;DHT22;5924;51.398;7.088;2024-02-16T12:30:56;14.50;99.90
11736;DHT22;5924;51.398;7.088;2024-02-16T12:33:22;14.40;99.90
11736;DHT22;5924;51.398;7.088;2024-02-16T12:35:48;14.40;99.90
11736;DHT22;5924;51.398;7.088;2024-02-16T12:38:14;14.40;99.90
11736;DHT22;5924;51.398;7.088;2024-02-16T12:40:43;14.30;99.90
11736;DHT22;5924;51.398;7.088;2024-02-16T12:43:08;14.30;99.90
11736;DHT22;5924;51.398;7.088;2024-02-16T12:45:36;14.30;99.90
11736;DHT22;5924;51.398;7.088;2024-02-16T12:48:03;14.20;99.90
11736;DHT22;5924;51.398;7.088;2024-02-16T12:50:30;14.20;99.90
11736;DHT22;5924;51.398;7.088;2024-02-16T12:52:56;14.10;99.90
11736;DHT22;5924;51.398;7.088;2024-02-16T12:55:22;14.10;99.90
11736;DHT22;5924;51.398;7.088;2024-02-16T12:57:49;14.10;99.90
11736;DHT22;5924;51.398;7.088;2024-02-16T13:00:15;14.10;99.90
11736;DHT22;5924;51.398;7.088;2024-02-16T13:02:41;14.00;99.90
11736;DHT22;5924;51.398;7.088;2024-02-16T13:05:07;14.00;99.90
11736;DHT22;5924;51.398;7.088;2024-02-16T13:07:33;14.00;99.90
11736;DHT22;5924;51.398;7.088;2024-02-16T13:09:59;14.00;99.90
11736;DHT22;5924;51.398;7.088;2024-02-16T13:12:25;13.90;99.90
11736;DHT22;5924;51.398;7.088;2024-02-16T13:14:51;13.90;99.90
11736;DHT22;5924;51.398;7.088;2024-02-16T13:17:16;13.90;99.90
11736;DHT22;5924;51.398;7.088;2024-02-16T13:19:42;13.80;99.90
11736;DHT22;5924;51.398;7.088;2024-02-16T13:22:08;13.80;99.90
11736;DHT22;5924;51.398;7.088;2024-02-16T13:24:34;15.30;99.90
11736;DHT22;5924;51.398;7.088;2024-02-16T13:27:00;14.50;99.90
11736;DHT22;5924;51.398;7.088;2024-02-16T13:29:27;15.30;99.90
11736;DHT22;5924;51.398;7.088;2024-02-16T13:31:53;13.80;99.90
11736;DHT22;5924;51.398;7.088;2024-02-16T13:34:18;13.80;99.90
11736;DHT22;5924;51.398;7.088;2024-02-16T13:36:44;13.80;99.90
11736;DHT22;5924;51.398;7.088;2024-02-16T13:39:10;13.80;99.90
11736;DHT22;5924;51.398;7.088;2024-02-16T13:41:35;13.80;99.90
11736;DHT22;5924;51.398;7.088;2024-02-16T13:44:01;13.70;99.90
11736;DHT22;5924;51.398;7.088;2024-02-16T13:46:27;13.70;99.90
11736;DHT22;5924;51.398;7.088;2024-02-16T13:48:53;13.50;99.90
11736;DHT22;5924;51.398;7.088;2024-02-16T13:51:19;13.40;99.90
11736;DHT22;5924;51.398;7.088;2024-02-16T13:53:44;13.30;99.90
11736;DHT22;5924;51.398;7.088;2024-02-16T13:56:10;13.10;99.90
11736;DHT22;5924;51.398;7.088;2024-02-16T13:58:36;13.00;99.90
11736;DHT22;5924;51.398;7.088;2024-02-16T14:01:03;12.90;99.90
11736;DHT22;5924;51.398;7.088;2024-02-16T14:03:29;12.80;99.90
11736;DHT22;5924;51.398;7.088;2024-02-16T14:05:55;13.00;99.90
11736;DHT22;5924;51.398;7.088;2024-02-16T14:08:21;12.80;99.90
11736;DHT22;5924;51.398;7.088;2024-02-16T14:10:48;12.70;99.90
11736;DHT22;5924;51.398;7.088;2024-02-16T14:13:14;12.70;99.90
11736;DHT22;5924;51.398;7.088;2024-02-16T14:15:40;13.80;99.90
11736;DHT22;5924;51.398;7.088;2024-02-16T14:18:06;11.20;99.90
11736;DHT22;5924;51.398;7.088;2024-02-16T14:20:32;12.60;99.90
11736;DHT22;5924;51.398;7.088;2024-02-16T14:22:58;12.50;99.90
11736;DHT22;5924;51.398;7.088;2024-02-16T14:25:24;12.50;99.90
11736;DHT22;5924;51.398;7.088;2024-02-16T14:27:51;12.50;99.90
11736;DHT22;5924;51.398;7.088;2024-02-16T14:30:16;12.50;99.90
11736;DHT22;5924;51.398;7.088;2024-02-16T14:32:42;12.50;99.90
11736;DHT22;5924;51.398;7.088;2024-02-16T14:35:08;12.50;99.90
11736;DHT22;5924;51.398;7.088;2024-02-16T14:37:35;14.80;99.90
11736;DHT22;5924;51.398;7.088;2024-02-16T14:40:01;12.40;99.90
11736;DHT22;5924;51.398;7.088;2024-02-16T14:42:29;12.40;99.90
11736;DHT22;5924;51.398;7.088;2024-02-16T14:44:55;13.30;99.90
11736;DHT22;5924;51.398;7.088;2024-02-16T14:47:20;12.40;99.90
11736;DHT22;5924;51.398;7.088;2024-02-16T14:49:47;12.40;99.90
11736;DHT22;5924;51.398;7.088;2024-02-16T14:52:14;12.40;99.90
11736;DHT22;5924;51.398;7.088;2024-02-16T14:54:39;12.70;99.90
11736;DHT22;5924;51.398;7.088;2024-02-16T14:57:05;12.40;99.90
11736;DHT22;5924;51.398;7.088;2024-02-16T14:59:31;12.40;99.90
11736;DHT22;5924;51.398;7.088;2024-02-16T15:01:57;12.40;99.90
11736;DHT22;5924;51.398;7.088;2024-02-16T15:04:24;13.10;99.90
11736;DHT22;5924;51.398;7.088;2024-02-16T15:06:49;12.30;99.90
11736;DHT22;5924;51.398;7.088;2024-02-16T15:09:15;12.30;99.90
11736;DHT22;5924;51.398;7.088;2024-02-16T15:11:40;12.30;99.90
11736;DHT22;5924;51.398;7.088;2024-02-16T15:14:06;12.30;99.90
11736;DHT22;5924;51.398;7.088;2024-02-16T15:16:32;12.30;99.90
11736;DHT22;5924;51.398;7.088;2024-02-16T15:18:57;12.20;99.90
11736;DHT22;5924;51.398;7.088;2024-02-16T15:21:24;12.20;99.90
11736;DHT22;5924;51.398;7.088;2024-02-16T15:23:49;12.20;99.90
11736;DHT22;5924;51.398;7.088;2024-02-16T15:26:15;12.50;99.90
11736;DHT22;5924;51.398;7.088;2024-02-16T15:28:41;12.10;99.90
11736;DHT22;5924;51.398;7.088;2024-02-16T15:31:07;12.10;99.90
11736;DHT22;5924;51.398;7.088;2024-02-16T15:33:33;12.40;99.90
11736;DHT22;5924;51.398;7.088;2024-02-16T15:35:58;12.00;99.90
11736;DHT22;5924;51.398;7.088;2024-02-16T15:38:25;12.00;99.90
11736;DHT22;5924;51.398;7.088;2024-02-16T15:40:50;12.00;99.90
11736;DHT22;5924;51.398;7.088;2024-02-16T15:43:16;11.90;99.90
11736;DHT22;5924;51.398;7.088;2024-02-16T15:45:42;11.90;99.90